createdAt,value
2022-08-17T00:01:27.581Z,99587.59
2022-08-17T00:06:32.831Z,99588.41
2022-08-17T00:11:38.606Z,99589.56
2022-08-17T00:16:55.544Z,99580.84
2022-08-17T00:22:34.759Z,99585.25
2022-08-17T00:27:26.480Z,99583.91
2022-08-17T00:33:15.648Z,99588.47
2022-08-17T00:37:55.226Z,99579.84
2022-08-17T00:42:58.550Z,99578.50
2022-08-17T00:48:01.861Z,99574.19
2022-08-17T00:53:07.116Z,99576.91
2022-08-17T00:58:11.630Z,99571.25
2022-08-17T01:03:19.645Z,99562.72
2022-08-17T01:08:28.271Z,99559.34
2022-08-17T01:13:40.766Z,99561.44
2022-08-17T01:18:46.938Z,99565.88
2022-08-17T01:23:51.769Z,99561.78
2022-08-17T01:28:56.164Z,99548.09
2022-08-17T01:34:00.111Z,99557.00
2022-08-17T01:39:08.160Z,99554.91
2022-08-17T01:44:11.606Z,99542.31
2022-08-17T01:49:14.901Z,99550.22
2022-08-17T01:54:20.830Z,99539.25
2022-08-17T01:59:24.398Z,99558.34
2022-08-17T02:04:28.069Z,99550.56
2022-08-17T02:09:32.903Z,99553.25
2022-08-17T02:14:36.588Z,99549.50
2022-08-17T02:19:40.575Z,99554.09
2022-08-17T02:25:01.252Z,99547.16
2022-08-17T02:31:01.045Z,99549.78
2022-08-17T02:35:32.430Z,99546.34
2022-08-17T02:40:40.622Z,99539.78
2022-08-17T02:45:44.302Z,99555.84
2022-08-17T02:50:48.202Z,99554.47
2022-08-17T02:55:52.937Z,99550.91
2022-08-17T03:00:56.737Z,99544.34
2022-08-17T03:06:00.582Z,99548.38
2022-08-17T03:11:05.612Z,99541.41
2022-08-17T03:16:10.016Z,99544.41
2022-08-17T03:21:13.050Z,99542.31
2022-08-17T03:26:17.738Z,99542.72
2022-08-17T03:31:22.814Z,99544.00
2022-08-17T03:36:26.197Z,99539.63
2022-08-17T03:41:30.991Z,99542.50
2022-08-17T03:46:51.896Z,99549.66
2022-08-17T03:52:13.856Z,99553.72
2022-08-17T03:57:19.427Z,99542.19
2022-08-17T04:02:25.514Z,99546.09
2022-08-17T04:07:31.085Z,99541.69
2022-08-17T04:12:46.948Z,99546.84
2022-08-17T04:17:50.483Z,99539.47
2022-08-17T04:22:58.555Z,99544.28
2022-08-17T04:28:04.018Z,99538.09
2022-08-17T04:33:14.152Z,99546.75
2022-08-17T04:38:19.941Z,99544.41
2022-08-17T04:43:27.211Z,99536.19
2022-08-17T04:48:36.391Z,99536.44
2022-08-17T04:53:41.499Z,99534.22
2022-08-17T04:58:49.742Z,99537.84
2022-08-17T05:03:54.835Z,99536.41
2022-08-17T05:08:59.418Z,99538.38
2022-08-17T05:14:04.865Z,99527.91
2022-08-17T05:19:08.483Z,99515.25
2022-08-17T05:24:38.348Z,99527.81
2022-08-17T05:29:37.698Z,99520.72
2022-08-17T05:34:41.005Z,99521.88
2022-08-17T05:39:45.176Z,99523.44
2022-08-17T05:44:49.982Z,99523.44
2022-08-17T05:49:53.799Z,99525.44
2022-08-17T05:55:11.727Z,99514.06
2022-08-17T06:00:21.847Z,99513.72
2022-08-17T06:05:51.624Z,99518.75
2022-08-17T06:11:00.584Z,99514.94
2022-08-17T06:16:25.971Z,99508.94
2022-08-17T06:21:40.769Z,99520.16
2022-08-17T06:26:45.802Z,99521.28
2022-08-17T06:31:51.191Z,99524.38
2022-08-17T06:37:14.986Z,99520.41
2022-08-17T06:43:05.026Z,99522.91
2022-08-17T06:47:57.025Z,99521.69
2022-08-17T06:53:05.892Z,99517.28
2022-08-17T06:58:16.336Z,99519.53
2022-08-17T07:03:32.382Z,99513.44
2022-08-17T07:08:48.376Z,99507.09
2022-08-17T07:13:59.191Z,99503.56
2022-08-17T07:19:04.409Z,99503.31
2022-08-17T07:24:33.242Z,99494.63
2022-08-17T07:29:54.894Z,99492.63
2022-08-17T07:35:10.836Z,99497.72
2022-08-17T07:40:29.692Z,99487.31
2022-08-17T07:45:53.563Z,99478.97
2022-08-17T07:50:57.365Z,99487.97
2022-08-17T07:56:00.775Z,99482.06
2022-08-17T08:01:09.208Z,99479.66
2022-08-17T08:06:23.136Z,99479.28
2022-08-17T08:11:32.387Z,99468.28
2022-08-17T08:16:37.698Z,99470.16
2022-08-17T08:21:48.922Z,99472.84
2022-08-17T08:27:04.393Z,99459.75
2022-08-17T08:32:20.307Z,99466.56
2022-08-17T08:37:42.507Z,99458.69
2022-08-17T08:42:56.542Z,99449.19
2022-08-17T08:48:23.145Z,99451.97
2022-08-17T08:53:51.680Z,99455.81
2022-08-17T08:59:03.549Z,99441.50
2022-08-17T09:04:27.296Z,99433.97
2022-08-17T09:09:41.582Z,99444.66
2022-08-17T09:14:53.082Z,99429.19
2022-08-17T09:20:02.757Z,99433.47
2022-08-17T09:25:11.696Z,99425.19
2022-08-17T09:30:15.878Z,99449.88
2022-08-17T09:35:25.220Z,99427.22
2022-08-17T09:40:52.776Z,99422.91
2022-08-17T09:46:02.643Z,99424.31
2022-08-17T09:51:14.856Z,99418.94
2022-08-17T09:56:34.694Z,99415.28
2022-08-17T10:01:43.574Z,99406.75
2022-08-17T10:06:59.232Z,99416.63
2022-08-17T10:12:17.792Z,99411.94
2022-08-17T10:17:29.418Z,99417.03
2022-08-17T10:23:10.758Z,99404.41
2022-08-17T10:28:19.882Z,99415.34
2022-08-17T10:33:26.079Z,99412.34
2022-08-17T10:38:40.042Z,99401.56
2022-08-17T10:43:57.829Z,99396.53
2022-08-17T10:49:34.811Z,99395.97
2022-08-17T10:54:48.400Z,99396.38
2022-08-17T10:59:53.987Z,99392.84
2022-08-17T11:05:47.909Z,99383.09
2022-08-17T11:11:07.687Z,99389.16
2022-08-17T11:16:32.744Z,99375.34
2022-08-17T11:22:02.987Z,99374.69
2022-08-17T11:27:23.643Z,99372.72
2022-08-17T11:32:34.147Z,99375.56
2022-08-17T11:37:47.901Z,99381.81
2022-08-17T11:43:00.713Z,99376.66
2022-08-17T11:48:33.950Z,99370.88
2022-08-17T11:54:32.837Z,99366.34
2022-08-17T11:59:59.020Z,99365.91
2022-08-17T12:05:27.592Z,99361.97
2022-08-17T12:10:34.424Z,99357.97
2022-08-17T12:15:48.846Z,99357.28
2022-08-17T12:21:19.430Z,99341.97
2022-08-17T12:26:30.443Z,99351.53
2022-08-17T12:31:43.448Z,99339.44
2022-08-17T12:36:48.338Z,99335.50
2022-08-17T12:41:57.358Z,99336.75
2022-08-17T12:47:09.917Z,99337.38
2022-08-17T12:52:16.955Z,99335.59
2022-08-17T12:57:23.954Z,99335.31
2022-08-17T13:02:45.511Z,99332.50
2022-08-17T13:07:49.618Z,99333.50
2022-08-17T13:12:53.690Z,99347.19
2022-08-17T13:18:03.988Z,99329.38
2022-08-17T13:23:12.445Z,99340.00
2022-08-17T13:28:35.722Z,99338.16
2022-08-17T13:33:44.959Z,99343.66
2022-08-17T13:38:51.077Z,99336.28
2022-08-17T13:43:54.508Z,99330.91
2022-08-17T13:49:01.894Z,99329.06
2022-08-17T13:54:25.751Z,99331.09
2022-08-17T13:59:52.568Z,99322.78
2022-08-17T14:05:00.638Z,99319.81
2022-08-17T14:10:08.526Z,99315.41
2022-08-17T14:15:14.178Z,99316.88
2022-08-17T14:20:22.853Z,99317.78
2022-08-17T14:25:28.898Z,99310.53
2022-08-17T14:30:32.662Z,99311.78
2022-08-17T14:35:37.570Z,99313.75
2022-08-17T14:40:41.148Z,99313.19
2022-08-17T14:45:45.023Z,99320.03
2022-08-17T14:50:49.799Z,99317.03
2022-08-17T14:55:53.233Z,99315.88
2022-08-17T15:00:56.891Z,99313.31
2022-08-17T15:06:02.849Z,99316.34
2022-08-17T15:11:06.679Z,99319.78
2022-08-17T15:16:15.179Z,99313.34
2022-08-17T15:21:20.588Z,99307.16
2022-08-17T15:26:26.358Z,99295.63
2022-08-17T15:31:32.118Z,99305.38
2022-08-17T15:36:37.574Z,99309.41
2022-08-17T15:41:44.949Z,99314.41
2022-08-17T15:46:49.897Z,99304.34
2022-08-17T15:51:54.927Z,99302.00
2022-08-17T15:56:58.341Z,99304.28
2022-08-17T16:03:01.767Z,99306.72
2022-08-17T16:07:26.946Z,99312.16
2022-08-17T16:12:30.483Z,99309.38
2022-08-17T16:17:39.967Z,99309.44
2022-08-17T16:22:46.998Z,99312.66
2022-08-17T16:27:53.728Z,99314.56
2022-08-17T16:32:59.945Z,99316.47
2022-08-17T16:38:04.906Z,99320.03
2022-08-17T16:43:12.203Z,99315.94
2022-08-17T16:48:16.573Z,99321.34
2022-08-17T16:53:21.787Z,99325.59
2022-08-17T16:58:25.205Z,99323.88
2022-08-17T17:03:30.875Z,99313.66
2022-08-17T17:08:44.370Z,99332.63
2022-08-17T17:13:54.867Z,99337.47
2022-08-17T17:19:09.658Z,99342.03
2022-08-17T17:24:22.988Z,99340.03
2022-08-17T17:29:48.084Z,99329.19
2022-08-17T17:34:56.212Z,99323.28
2022-08-17T17:40:05.226Z,99324.19
2022-08-17T17:45:16.099Z,99317.00
2022-08-17T17:50:35.888Z,99309.34
2022-08-17T17:55:55.260Z,99318.00
2022-08-17T18:01:20.315Z,99318.16
2022-08-17T18:06:39.925Z,99309.25
2022-08-17T18:11:59.220Z,99294.56
2022-08-17T18:17:03.313Z,99310.19
2022-08-17T18:22:14.182Z,99312.47
2022-08-17T18:27:26.661Z,99310.81
2022-08-17T18:32:36.149Z,99304.78
2022-08-17T18:37:46.325Z,99304.28
2022-08-17T18:43:04.252Z,99308.34
2022-08-17T18:48:21.149Z,99301.50
2022-08-17T18:53:34.752Z,99308.28
2022-08-17T18:58:40.933Z,99303.09
2022-08-17T19:03:46.561Z,99302.78
2022-08-17T19:08:49.975Z,99306.38
2022-08-17T19:13:58.391Z,99306.28
2022-08-17T19:19:06.467Z,99297.09
2022-08-17T19:24:19.475Z,99296.59
2022-08-17T19:29:31.176Z,99303.69
2022-08-17T19:34:37.004Z,99297.91
2022-08-17T19:40:00.865Z,99305.22
2022-08-17T19:45:17.030Z,99308.22
2022-08-17T19:50:26.645Z,99308.75
2022-08-17T19:55:37.992Z,99299.41
2022-08-17T20:00:50.520Z,99304.81
2022-08-17T20:06:13.879Z,99298.13
2022-08-17T20:11:22.150Z,99293.16
2022-08-17T20:16:27.317Z,99306.75
2022-08-17T20:21:37.254Z,99302.47
2022-08-17T20:26:58.114Z,99305.34
2022-08-17T20:32:24.117Z,99302.06
2022-08-17T20:37:31.236Z,99316.41
2022-08-17T20:42:35.594Z,99317.84
2022-08-17T20:48:07.401Z,99319.16
2022-08-17T20:53:13.546Z,99328.69
2022-08-17T20:58:38.444Z,99327.13
2022-08-17T21:03:52.290Z,99330.00
2022-08-17T21:09:19.723Z,99335.69
2022-08-17T21:14:33.012Z,99336.13
2022-08-17T21:20:10.239Z,99335.28
2022-08-17T21:25:37.236Z,99337.31
2022-08-17T21:30:48.899Z,99336.69
2022-08-17T21:36:16.428Z,99338.03
2022-08-17T21:41:22.321Z,99344.41
2022-08-17T21:46:30.575Z,99334.94
2022-08-17T21:51:38.834Z,99342.22
2022-08-17T21:56:47.257Z,99342.75
2022-08-17T22:01:54.110Z,99344.66
2022-08-17T22:07:00.587Z,99346.75
2022-08-17T22:12:09.235Z,99343.53
2022-08-17T22:17:17.858Z,99339.84
2022-08-17T22:22:29.355Z,99338.53
2022-08-17T22:27:49.133Z,99350.34
2022-08-17T22:32:52.778Z,99349.88
2022-08-17T22:37:57.653Z,99349.09
2022-08-17T22:43:03.556Z,99352.00
2022-08-17T22:48:07.512Z,99354.22
2022-08-17T22:53:38.132Z,99349.97
2022-08-17T22:59:02.845Z,99358.25
2022-08-17T23:04:08.789Z,99353.19
2022-08-17T23:09:13.615Z,99360.16
2022-08-17T23:14:19.319Z,99343.06
2022-08-17T23:19:23.283Z,99363.94
2022-08-17T23:24:30.292Z,99362.22
2022-08-17T23:29:33.701Z,99360.75
2022-08-17T23:34:39.068Z,99356.81
2022-08-17T23:39:45.145Z,99360.44
2022-08-17T23:44:49.433Z,99347.44
2022-08-17T23:49:54.213Z,99359.84
2022-08-17T23:55:00.271Z,99372.75
